Time;durP1;ratioP1;P1;durP2;ratioP2;P2;SDS_P1;SDS_P2;PMS_P1;PMS_P2;Temp;Humidity;BMP_temperature;BMP_pressure;BME280_temperature;BME280_humidity;BME280_pressure;Samples;Min_cycle;Max_cycle;Signal;HPM_P1;HPM_P2
2022/09/08 00:01:12;;;;;;;9.77;9.48;;;20.20;99.90;;;;;;5040059;28;20227;-79
2022/09/08 00:03:39;;;;;;;9.73;9.43;;;20.10;99.90;;;;;;5039468;28;20239;-78
2022/09/08 00:06:12;;;;;;;9.75;9.45;;;20.00;99.90;;;;;;5039071;28;20228;-78
2022/09/08 00:08:40;;;;;;;9.80;9.50;;;19.90;99.90;;;;;;5039947;28;20238;-77
2022/09/08 00:11:10;;;;;;;9.73;9.43;;;19.80;99.90;;;;;;5039751;28;20294;-79
2022/09/08 00:13:41;;;;;;;9.90;9.60;;;19.80;99.90;;;;;;5038965;28;20239;-79
2022/09/08 00:16:10;;;;;;;10.00;9.70;;;19.70;99.90;;;;;;5039867;28;20247;-78
2022/09/08 00:18:41;;;;;;;9.80;9.50;;;19.70;99.90;;;;;;5040153;28;20257;-77
2022/09/08 00:21:09;;;;;;;9.80;9.50;;;19.70;99.90;;;;;;5039414;28;20238;-77
2022/09/08 00:23:37;;;;;;;9.85;9.55;;;19.60;99.90;;;;;;5038661;28;20231;-77
2022/09/08 00:26:05;;;;;;;9.88;9.57;;;19.50;99.90;;;;;;5038243;28;20282;-80
2022/09/08 00:28:35;;;;;;;9.80;9.50;;;19.50;99.90;;;;;;5038055;28;20231;-77
2022/09/08 00:31:04;;;;;;;10.10;9.80;;;19.50;99.90;;;;;;5038683;28;20232;-78
2022/09/08 00:33:32;;;;;;;9.70;9.40;;;19.50;99.90;;;;;;5039743;28;20650;-79
2022/09/08 00:36:00;;;;;;;9.90;9.60;;;19.40;99.90;;;;;;5039346;28;20239;-78
2022/09/08 00:38:30;;;;;;;9.90;9.60;;;19.40;99.90;;;;;;5039348;28;20255;-79
2022/09/08 00:40:58;;;;;;;9.80;9.50;;;19.30;99.90;;;;;;5039415;28;20238;-79
2022/09/08 00:43:38;;;;;;;10.00;9.70;;;19.20;99.90;;;;;;5039425;28;20242;-78
2022/09/08 00:46:20;;;;;;;10.23;9.93;;;19.00;99.90;;;;;;5038880;28;20223;-78
2022/09/08 00:48:52;;;;;;;9.90;9.60;;;18.90;99.90;;;;;;5038357;28;20290;-77
2022/09/08 00:51:21;;;;;;;9.75;9.45;;;18.80;99.90;;;;;;5039674;28;20289;-78
2022/09/08 00:53:49;;;;;;;9.60;9.30;;;18.60;99.90;;;;;;5039453;28;20242;-78
2022/09/08 00:56:19;;;;;;;9.60;9.30;;;18.50;99.90;;;;;;5039924;28;20247;-78
2022/09/08 00:58:48;;;;;;;9.30;9.00;;;18.40;99.90;;;;;;5039902;28;20224;-79
2022/09/08 01:01:17;;;;;;;9.30;9.00;;;18.30;99.90;;;;;;5047866;28;20228;-79
2022/09/08 01:03:45;;;;;;;9.30;9.00;;;18.20;99.90;;;;;;5041005;28;20247;-78
2022/09/08 01:12:47;;;;;;;9.40;9.10;;;18.00;99.90;;;;;;5020495;28;20223;-79
2022/09/08 01:15:19;;;;;;;9.30;9.00;;;17.80;99.90;;;;;;5039334;28;20243;-78
2022/09/08 01:17:49;;;;;;;9.32;9.02;;;17.80;99.90;;;;;;5040655;28;20212;-78
2022/09/08 01:20:20;;;;;;;9.20;8.90;;;17.70;99.90;;;;;;5039513;28;20250;-78
2022/09/08 01:23:11;;;;;;;9.10;8.80;;;17.70;99.90;;;;;;5039886;28;20242;-78
2022/09/08 01:26:10;;;;;;;8.88;8.63;;;17.70;99.90;;;;;;5042949;28;20232;-78
2022/09/08 01:28:44;;;;;;;8.90;8.60;;;17.70;99.90;;;;;;5047358;28;20236;-78
2022/09/08 01:31:13;;;;;;;8.65;8.45;;;17.70;99.90;;;;;;5044550;28;20223;-80
2022/09/08 01:33:44;;;;;;;8.90;8.70;;;17.70;99.90;;;;;;5040333;28;20266;-78
2022/09/08 01:36:14;;;;;;;8.88;8.68;;;17.70;99.90;;;;;;5039504;28;20249;-78
2022/09/08 01:38:42;;;;;;;9.10;8.80;;;17.60;99.90;;;;;;5039607;28;20238;-78
2022/09/08 01:41:10;;;;;;;8.75;8.55;;;17.60;99.90;;;;;;5039501;28;20238;-78
2022/09/08 01:43:40;;;;;;;8.70;8.50;;;17.60;99.90;;;;;;5038860;28;20240;-78
2022/09/08 01:46:07;;;;;;;8.55;8.35;;;17.60;99.90;;;;;;5038851;28;20235;-78
2022/09/08 01:48:37;;;;;;;8.57;8.38;;;17.60;99.90;;;;;;5038878;28;20242;-78
2022/09/08 01:51:08;;;;;;;8.77;8.57;;;17.50;99.90;;;;;;5038911;28;20223;-80
2022/09/08 01:53:38;;;;;;;8.70;8.50;;;17.60;99.90;;;;;;5039165;28;20245;-78
2022/09/08 01:56:07;;;;;;;9.10;8.80;;;17.60;99.90;;;;;;5038827;28;20317;-79
2022/09/08 01:58:35;;;;;;;8.80;8.60;;;17.60;99.90;;;;;;5039191;28;20306;-78
2022/09/08 02:01:05;;;;;;;9.00;8.70;;;17.60;99.90;;;;;;5039000;28;20227;-79
2022/09/08 02:03:33;;;;;;;8.73;8.52;;;17.60;99.90;;;;;;5038281;28;20239;-79
2022/09/08 02:06:02;;;;;;;9.00;8.70;;;17.50;99.90;;;;;;5038004;28;20258;-78
2022/09/08 02:08:31;;;;;;;8.75;8.55;;;17.50;99.90;;;;;;5038487;28;20219;-78
2022/09/08 02:11:00;;;;;;;9.10;8.80;;;17.50;99.90;;;;;;5038428;28;20231;-78
2022/09/08 02:13:28;;;;;;;9.00;8.70;;;17.40;99.90;;;;;;5039202;28;20235;-79
2022/09/08 02:16:01;;;;;;;9.27;8.98;;;17.40;99.90;;;;;;5038874;28;20246;-78
2022/09/08 02:18:33;;;;;;;9.07;8.77;;;17.40;99.90;;;;;;5038626;28;20283;-78
2022/09/08 02:21:12;;;;;;;9.00;8.70;;;17.40;99.90;;;;;;5039024;28;20279;-78
2022/09/08 02:23:45;;;;;;;8.82;8.63;;;17.40;99.90;;;;;;5038862;28;20235;-78
2022/09/08 02:26:28;;;;;;;8.85;8.65;;;17.40;99.90;;;;;;5037970;28;20239;-78
2022/09/08 02:28:57;;;;;;;9.20;8.90;;;17.40;99.90;;;;;;5047233;28;20235;-78
2022/09/08 02:31:27;;;;;;;9.00;8.70;;;17.50;99.90;;;;;;5047466;28;20235;-78
2022/09/08 02:34:05;;;;;;;9.23;8.93;;;17.50;99.90;;;;;;5047910;28;20318;-78
2022/09/08 02:36:33;;;;;;;8.88;8.68;;;17.40;99.90;;;;;;5040186;28;20291;-78
2022/09/08 02:39:01;;;;;;;8.77;8.57;;;17.40;99.90;;;;;;5039891;28;20237;-78
2022/09/08 02:41:29;;;;;;;8.55;8.35;;;17.40;99.90;;;;;;5039729;28;20215;-79
2022/09/08 02:43:57;;;;;;;8.80;8.60;;;17.40;99.90;;;;;;5038863;28;20262;-78
2022/09/08 02:46:25;;;;;;;8.57;8.38;;;17.40;99.90;;;;;;5038717;28;20231;-79
2022/09/08 02:48:54;;;;;;;8.60;8.40;;;17.30;99.90;;;;;;5040476;28;20235;-78
2022/09/08 02:51:23;;;;;;;9.20;8.90;;;17.30;99.90;;;;;;5043519;28;20231;-78
2022/09/08 02:53:55;;;;;;;9.18;8.88;;;17.30;99.90;;;;;;5038553;28;20238;-78
2022/09/08 02:56:22;;;;;;;9.00;8.70;;;17.30;99.90;;;;;;5038412;28;20243;-78
2022/09/08 02:58:50;;;;;;;8.70;8.50;;;17.30;99.90;;;;;;5038076;28;20235;-79
2022/09/08 03:01:18;;;;;;;8.70;8.50;;;17.40;99.90;;;;;;5038105;28;20264;-78
2022/09/08 03:03:46;;;;;;;8.65;8.45;;;17.30;99.90;;;;;;5037804;28;20243;-78
2022/09/08 03:06:13;;;;;;;8.80;8.60;;;17.30;99.90;;;;;;5038205;28;20227;-78
2022/09/08 03:08:42;;;;;;;8.50;8.30;;;17.30;99.90;;;;;;5037640;28;20239;-79
2022/09/08 03:11:10;;;;;;;8.88;8.68;;;17.30;99.90;;;;;;5038011;28;20231;-78
2022/09/08 03:13:39;;;;;;;8.90;8.70;;;17.30;99.90;;;;;;5038168;28;20259;-78
2022/09/08 03:16:07;;;;;;;8.50;8.30;;;17.30;99.90;;;;;;5038043;28;20231;-78
2022/09/08 03:18:35;;;;;;;9.10;8.80;;;17.30;99.90;;;;;;5037748;28;20254;-78
2022/09/08 03:21:05;;;;;;;8.70;8.50;;;17.30;99.90;;;;;;5040461;28;20230;-78
2022/09/08 03:23:34;;;;;;;8.85;8.65;;;17.30;99.90;;;;;;5042179;28;20246;-78
2022/09/08 03:26:12;;;;;;;9.20;8.90;;;17.30;99.90;;;;;;5052211;28;20326;-78
2022/09/08 03:28:40;;;;;;;9.30;9.00;;;17.30;99.90;;;;;;5044463;28;20279;-78
2022/09/08 03:31:09;;;;;;;9.02;8.73;;;17.30;99.90;;;;;;5043989;28;20220;-78
2022/09/08 03:33:36;;;;;;;9.10;8.80;;;17.30;99.90;;;;;;5042733;28;20243;-78
2022/09/08 03:36:07;;;;;;;9.05;8.75;;;17.40;99.90;;;;;;5041698;28;20716;-79
2022/09/08 03:38:35;;;;;;;9.20;8.90;;;17.40;99.90;;;;;;5042325;28;20224;-78
2022/09/08 03:41:07;;;;;;;8.82;8.63;;;17.40;99.90;;;;;;5041757;28;20248;-79
2022/09/08 03:43:35;;;;;;;8.70;8.50;;;17.40;99.90;;;;;;5041374;28;20227;-78
2022/09/08 03:46:07;;;;;;;8.77;8.57;;;17.40;99.90;;;;;;5041686;28;20286;-79
2022/09/08 03:48:35;;;;;;;8.40;8.20;;;17.40;99.90;;;;;;5041490;28;20314;-79
2022/09/08 03:51:10;;;;;;;8.20;8.00;;;17.40;99.90;;;;;;5042779;28;20220;-79
2022/09/08 03:53:38;;;;;;;8.13;7.93;;;17.40;99.90;;;;;;5041569;28;20310;-78
2022/09/08 03:56:13;;;;;;;7.80;7.60;;;17.40;99.90;;;;;;5040936;28;20236;-79
2022/09/08 03:58:40;;;;;;;8.13;7.93;;;17.40;99.90;;;;;;5040882;28;20230;-78
2022/09/08 04:01:09;;;;;;;7.97;7.78;;;17.40;99.90;;;;;;5041304;28;20224;-79
2022/09/08 04:03:38;;;;;;;8.00;7.80;;;17.40;99.90;;;;;;5063299;23;20258;-82
2022/09/08 04:06:10;;;;;;;8.10;7.90;;;17.40;99.90;;;;;;5038910;28;20247;-82
2022/09/08 04:11:35;;;;;;;8.23;8.02;;;17.30;99.90;;;;;;5038797;28;20200;-82
2022/09/08 04:14:11;;;;;;;8.40;8.20;;;17.30;99.90;;;;;;5022435;28;20235;-85
2022/09/08 04:16:40;;;;;;;8.50;8.30;;;17.30;99.90;;;;;;5031302;28;20311;-83
2022/09/08 04:19:09;;;;;;;8.65;8.45;;;17.40;99.90;;;;;;5030860;28;20239;-85
2022/09/08 04:21:39;;;;;;;8.60;8.40;;;17.30;99.90;;;;;;5030411;28;20221;-83
2022/09/08 04:24:08;;;;;;;8.77;8.57;;;17.40;99.90;;;;;;5029735;28;20236;-83
2022/09/08 04:26:47;;;;;;;8.63;8.43;;;17.30;99.90;;;;;;5028718;28;20228;-85
2022/09/08 04:32:12;;;;;;;8.38;8.18;;;17.40;99.90;;;;;;5026016;28;20224;-83
2022/09/08 04:34:43;;;;;;;9.10;8.80;;;17.40;99.90;;;;;;5029755;28;20235;-83
2022/09/08 04:37:13;;;;;;;9.40;9.10;;;17.40;99.90;;;;;;5027814;28;20251;-83
2022/09/08 04:39:44;;;;;;;9.43;9.13;;;17.40;99.90;;;;;;5027196;28;20236;-83
2022/09/08 04:42:16;;;;;;;9.60;9.30;;;17.40;99.90;;;;;;5027682;28;20232;-83
2022/09/08 04:47:28;;;;;;;9.70;9.40;;;17.50;99.90;;;;;;5026519;28;20232;-83
2022/09/08 04:49:57;;;;;;;9.60;9.30;;;17.50;99.90;;;;;;5027082;28;20232;-83
2022/09/08 04:52:27;;;;;;;9.55;9.25;;;17.50;99.90;;;;;;5027136;28;20232;-83
2022/09/08 04:58:02;;;;;;;9.65;9.35;;;17.40;99.90;;;;;;5005340;28;20244;-83
2022/09/08 05:00:30;;;;;;;9.70;9.40;;;17.40;99.90;;;;;;5006388;28;20304;-83
2022/09/08 05:02:59;;;;;;;9.48;9.18;;;17.40;99.90;;;;;;5006607;28;20233;-83
2022/09/08 05:05:29;;;;;;;9.60;9.30;;;17.30;99.90;;;;;;5005104;28;20244;-83
2022/09/08 05:07:58;;;;;;;9.60;9.30;;;17.30;99.90;;;;;;5006685;28;20248;-83
2022/09/08 05:10:28;;;;;;;9.80;9.50;;;17.30;99.90;;;;;;5005634;28;20280;-82
2022/09/08 05:13:06;;;;;;;9.73;9.43;;;17.20;99.90;;;;;;5013447;28;20213;-83
2022/09/08 05:15:35;;;;;;;9.77;9.48;;;17.20;99.90;;;;;;5010513;28;20237;-84
2022/09/08 05:18:06;;;;;;;9.80;9.50;;;17.20;99.90;;;;;;5010371;28;20243;-84
2022/09/08 05:20:36;;;;;;;9.50;9.20;;;17.20;99.90;;;;;;5007783;28;20261;-81
2022/09/08 05:23:06;;;;;;;9.60;9.30;;;17.20;99.90;;;;;;5010056;28;20225;-83
2022/09/08 05:25:36;;;;;;;9.70;9.40;;;17.20;99.90;;;;;;5017734;28;20246;-84
2022/09/08 05:28:05;;;;;;;9.60;9.30;;;17.30;99.90;;;;;;5026579;28;20231;-84
2022/09/08 05:30:33;;;;;;;9.48;9.18;;;17.30;99.90;;;;;;5026263;28;20240;-83
2022/09/08 05:33:08;;;;;;;9.68;9.38;;;17.30;99.90;;;;;;5025075;28;20284;-83
2022/09/08 05:35:40;;;;;;;9.55;9.25;;;17.40;99.90;;;;;;5026137;28;20239;-83
2022/09/08 05:38:10;;;;;;;9.60;9.30;;;17.40;99.90;;;;;;5027906;28;20247;-84
2022/09/08 05:40:48;;;;;;;9.70;9.40;;;17.40;99.90;;;;;;5026815;28;20231;-83
2022/09/08 05:43:27;;;;;;;9.80;9.50;;;17.40;99.90;;;;;;5026412;28;20287;-84
2022/09/08 05:45:55;;;;;;;9.70;9.40;;;17.40;99.90;;;;;;5027123;28;20255;-84
2022/09/08 05:48:46;;;;;;;10.15;9.85;;;17.40;99.90;;;;;;5018090;28;20233;-83
2022/09/08 05:51:24;;;;;;;9.93;9.63;;;17.40;99.90;;;;;;5004922;28;20443;-86
2022/09/08 05:53:52;;;;;;;9.70;9.40;;;17.40;99.90;;;;;;5004006;28;20228;-87
2022/09/08 05:56:22;;;;;;;9.90;9.60;;;17.40;99.90;;;;;;5002979;28;20236;-86
2022/09/08 05:58:58;;;;;;;9.98;9.68;;;17.40;99.90;;;;;;5003122;28;20247;-86
2022/09/08 06:01:27;;;;;;;9.75;9.45;;;17.40;99.90;;;;;;5004872;28;20244;-86
2022/09/08 06:03:58;;;;;;;9.57;9.27;;;17.50;99.90;;;;;;5006126;28;20260;-86
2022/09/08 06:06:29;;;;;;;10.00;9.70;;;17.40;99.90;;;;;;5004832;28;20237;-86
2022/09/08 06:08:59;;;;;;;9.80;9.50;;;17.40;99.90;;;;;;5004934;28;20237;-86
2022/09/08 06:11:28;;;;;;;9.60;9.30;;;17.40;99.90;;;;;;5008225;28;20232;-86
2022/09/08 06:14:05;;;;;;;9.50;9.20;;;17.40;99.90;;;;;;5016965;28;20251;-86
2022/09/08 06:16:33;;;;;;;9.57;9.27;;;17.40;99.90;;;;;;5005014;28;20553;-86
2022/09/08 06:19:02;;;;;;;9.57;9.27;;;17.40;99.90;;;;;;5005212;28;20243;-86
2022/09/08 06:21:33;;;;;;;9.40;9.10;;;17.40;99.90;;;;;;5001561;28;20228;-85
2022/09/08 06:24:11;;;;;;;9.45;9.15;;;17.50;99.90;;;;;;5002484;28;20284;-85
2022/09/08 06:27:06;;;;;;;9.60;9.30;;;17.40;99.90;;;;;;5007944;28;20221;-86
2022/09/08 06:30:02;;;;;;;9.75;9.45;;;17.40;99.90;;;;;;5010150;28;20225;-83
2022/09/08 06:40:23;;;;;;;10.00;9.70;;;17.40;99.90;;;;;;4978038;28;20285;-84
2022/09/08 06:47:14;;;;;;;;;;;;;;;;;;;;;
2022/09/08 06:49:58;;;;;;;9.50;9.20;;;17.40;99.90;;;;;;5019425;28;20213;-84
2022/09/08 07:02:10;;;;;;;9.80;9.50;;;17.30;99.90;;;;;;5015093;28;20204;-88
2022/09/08 07:05:26;;;;;;;9.55;9.25;;;17.40;99.90;;;;;;5009362;28;20232;-89
2022/09/08 07:08:09;;;;;;;9.45;9.15;;;17.40;99.90;;;;;;5006955;28;20699;-88
2022/09/08 07:10:47;;;;;;;9.50;9.20;;;17.30;99.90;;;;;;5008289;28;20216;-88
2022/09/08 07:16:21;;;;;;;10.00;9.70;;;17.20;99.90;;;;;;4997481;28;20331;-88
2022/09/08 07:21:56;;;;;;;9.85;9.55;;;17.20;99.90;;;;;;4998490;28;20322;-87
2022/09/08 07:24:33;;;;;;;9.60;9.30;;;17.20;99.90;;;;;;4999915;28;20236;-87
2022/09/08 07:27:15;;;;;;;9.68;9.38;;;17.10;99.90;;;;;;5006738;28;20232;-85
2022/09/08 07:29:49;;;;;;;9.80;9.50;;;17.10;99.90;;;;;;5012604;28;20256;-84
2022/09/08 07:48:11;;;;;;;9.50;9.20;;;17.30;99.90;;;;;;5029538;28;20207;-87
2022/09/08 09:37:04;;;;;;;9.93;9.63;;;17.60;99.90;;;;;;5020891;28;20278;-89
2022/09/08 10:44:46;;;;;;;10.60;10.30;;;19.70;99.90;;;;;;4940533;28;20454;-90
2022/09/08 10:52:46;;;;;;;;;;;;;;;;;;;;;
2022/09/08 10:59:52;;;;;;;11.38;10.98;;;19.70;99.90;;;;;;5088185;28;20233;-88
2022/09/08 11:12:03;;;;;;;10.65;10.35;;;19.80;99.90;;;;;;5268441;22;20245;-79
2022/09/08 11:15:02;;;;;;;10.95;10.65;;;19.70;99.90;;;;;;5099980;28;20332;-80
2022/09/08 11:17:44;;;;;;;10.77;10.48;;;19.80;99.90;;;;;;5104367;28;20221;-80
2022/09/08 11:20:21;;;;;;;10.80;10.50;;;19.80;99.90;;;;;;5103412;28;20942;-80
2022/09/08 11:23:08;;;;;;;11.10;10.80;;;20.00;99.90;;;;;;5084486;28;20260;-81
2022/09/08 11:25:51;;;;;;;11.30;10.90;;;20.20;99.90;;;;;;5082239;28;20266;-81
2022/09/08 11:28:41;;;;;;;10.82;10.52;;;20.40;99.90;;;;;;5081932;28;20289;-81
2022/09/08 11:31:22;;;;;;;11.50;11.10;;;20.50;99.90;;;;;;5081153;28;20284;-79
2022/09/08 11:34:24;;;;;;;11.23;10.88;;;20.50;99.90;;;;;;5082953;28;20316;-80
2022/09/08 11:37:38;;;;;;;11.48;11.07;;;20.40;99.90;;;;;;5081939;28;20233;-80
2022/09/08 11:40:36;;;;;;;11.43;11.02;;;20.30;99.90;;;;;;5082675;28;20227;-81
2022/09/08 11:43:34;;;;;;;11.65;11.25;;;20.20;99.90;;;;;;5083005;28;20320;-79
2022/09/08 11:46:17;;;;;;;11.60;11.20;;;20.20;99.90;;;;;;5082375;28;20241;-81
2022/09/08 11:49:39;;;;;;;12.10;11.70;;;20.60;99.90;;;;;;5084798;28;20226;-81
2022/09/08 11:52:29;;;;;;;11.82;11.43;;;21.00;99.90;;;;;;5091966;28;20273;-81
2022/09/08 11:55:28;;;;;;;11.98;11.57;;;21.30;99.90;;;;;;5095388;28;20289;-79
2022/09/08 11:58:19;;;;;;;12.10;11.70;;;21.60;99.90;;;;;;5096228;28;20245;-80
2022/09/08 12:01:29;;;;;;;11.63;11.23;;;21.50;99.90;;;;;;5087756;28;20241;-80
2022/09/08 12:04:47;;;;;;;11.50;11.10;;;21.30;99.90;;;;;;5084466;28;20285;-80
2022/09/08 12:07:46;;;;;;;11.50;11.10;;;21.20;99.90;;;;;;5084141;28;20233;-80
2022/09/08 12:10:51;;;;;;;11.55;11.15;;;21.40;99.90;;;;;;5083681;28;20237;-80
2022/09/08 12:13:27;;;;;;;11.52;11.13;;;21.70;99.90;;;;;;5088509;28;20230;-80
2022/09/08 12:16:38;;;;;;;11.68;11.27;;;21.90;99.90;;;;;;5084839;28;20214;-80
2022/09/08 12:19:26;;;;;;;11.80;11.40;;;21.60;99.90;;;;;;5083790;28;20238;-80
2022/09/08 12:22:44;;;;;;;11.90;11.50;;;21.90;99.90;;;;;;5083360;28;20238;-80
2022/09/08 12:25:35;;;;;;;11.90;11.50;;;22.30;99.90;;;;;;5059573;28;20241;-80
2022/09/08 12:28:19;;;;;;;11.80;11.40;;;22.40;99.90;;;;;;5085788;28;20221;-80
2022/09/08 12:31:07;;;;;;;11.70;11.30;;;22.10;99.90;;;;;;5084232;28;20244;-80
2022/09/08 12:34:32;;;;;;;11.88;11.48;;;21.70;99.90;;;;;;5085388;28;20236;-79
2022/09/08 12:37:15;;;;;;;11.63;11.23;;;21.80;99.90;;;;;;5002446;28;20268;-81
2022/09/08 12:40:11;;;;;;;11.90;11.50;;;22.60;99.90;;;;;;5085169;28;20230;-80
2022/09/08 12:43:07;;;;;;;12.07;11.68;;;23.10;99.90;;;;;;5088906;28;20233;-80
2022/09/08 12:46:02;;;;;;;12.10;11.70;;;23.50;99.90;;;;;;5088166;28;20253;-80
2022/09/08 12:48:37;;;;;;;11.32;11.02;;;23.40;99.90;;;;;;5082174;28;20214;-81
2022/09/08 12:51:21;;;;;;;11.52;11.13;;;23.80;99.90;;;;;;5084026;28;20312;-80
2022/09/08 12:54:21;;;;;;;11.75;11.35;;;23.90;99.90;;;;;;5084823;28;20252;-80
2022/09/08 12:57:05;;;;;;;11.90;11.50;;;23.90;99.90;;;;;;5073235;28;20226;-82
2022/09/08 12:59:50;;;;;;;11.35;11.05;;;23.30;99.90;;;;;;5083883;28;20226;-80
2022/09/08 13:02:44;;;;;;;11.23;10.93;;;23.10;99.90;;;;;;5083494;28;20288;-80
2022/09/08 13:05:46;;;;;;;11.77;11.38;;;22.90;99.90;;;;;;5083421;28;20237;-80
2022/09/08 13:08:32;;;;;;;11.57;11.18;;;23.30;99.90;;;;;;5084265;28;20237;-80
2022/09/08 13:11:09;;;;;;;12.20;11.80;;;23.60;99.90;;;;;;5083853;28;20299;-81
2022/09/08 13:13:44;;;;;;;12.20;11.80;;;23.90;99.90;;;;;;5083297;28;20226;-80
2022/09/08 13:16:33;;;;;;;12.02;11.63;;;24.30;99.90;;;;;;5082704;28;20225;-80
2022/09/08 13:19:17;;;;;;;12.30;11.90;;;24.50;99.90;;;;;;5082475;28;20303;-80
2022/09/08 13:22:24;;;;;;;11.85;11.45;;;24.60;99.90;;;;;;5082589;28;20222;-80
2022/09/08 13:25:08;;;;;;;11.75;11.35;;;24.10;99.90;;;;;;5081216;28;20312;-82
2022/09/08 13:27:56;;;;;;;11.90;11.50;;;23.50;99.90;;;;;;5082329;28;20230;-80
2022/09/08 13:30:31;;;;;;;12.15;11.75;;;23.30;99.90;;;;;;5082293;28;20230;-80
2022/09/08 13:33:41;;;;;;;12.00;11.60;;;23.40;99.90;;;;;;5081911;28;20226;-80
2022/09/08 13:36:38;;;;;;;11.85;11.45;;;23.70;99.90;;;;;;5061412;28;20258;-80
2022/09/08 13:39:34;;;;;;;11.80;11.40;;;23.80;99.90;;;;;;5066690;28;20235;-82
2022/09/08 13:42:21;;;;;;;11.73;11.32;;;23.40;99.90;;;;;;5060637;28;20292;-78
2022/09/08 13:45:15;;;;;;;11.70;11.30;;;23.10;99.90;;;;;;5058589;28;20252;-79
2022/09/08 13:48:28;;;;;;;11.90;11.50;;;23.20;99.90;;;;;;5065807;28;20223;-77
2022/09/08 13:51:27;;;;;;;11.90;11.50;;;23.20;99.90;;;;;;5068869;28;20301;-76
2022/09/08 13:54:40;;;;;;;11.70;11.30;;;23.20;99.90;;;;;;5074684;28;20249;-77
2022/09/08 13:57:28;;;;;;;11.30;11.00;;;23.10;99.90;;;;;;5077505;28;20227;-78
2022/09/08 14:00:07;;;;;;;11.50;11.15;;;23.00;99.90;;;;;;5078771;28;20226;-79
2022/09/08 14:02:45;;;;;;;11.38;11.07;;;22.90;99.90;;;;;;5078278;28;20239;-77
2022/09/08 14:05:23;;;;;;;11.88;11.48;;;22.80;99.90;;;;;;5077038;28;20286;-78
2022/09/08 14:07:59;;;;;;;11.80;11.40;;;22.70;99.90;;;;;;5072687;28;20226;-78
2022/09/08 14:11:06;;;;;;;11.35;11.02;;;22.90;99.90;;;;;;5075939;28;20223;-76
2022/09/08 14:13:37;;;;;;;11.93;11.52;;;23.00;99.90;;;;;;5069697;28;20230;-77
2022/09/08 14:16:19;;;;;;;11.80;11.40;;;23.30;99.90;;;;;;5074566;28;20246;-76
2022/09/08 14:19:31;;;;;;;12.05;11.65;;;24.00;99.90;;;;;;5070743;28;20237;-77
2022/09/08 14:25:06;;;;;;;12.00;11.60;;;25.30;99.90;;;;;;5014539;28;20252;-82
2022/09/08 14:27:54;;;;;;;12.15;11.75;;;25.70;99.90;;;;;;5064182;28;20318;-81
2022/09/08 14:30:34;;;;;;;12.35;11.95;;;26.10;99.90;;;;;;5070238;28;20219;-83
2022/09/08 14:33:28;;;;;;;12.25;11.85;;;26.50;99.90;;;;;;5062430;28;20226;-83
2022/09/08 14:35:59;;;;;;;12.07;11.68;;;26.90;99.90;;;;;;5061381;28;20316;-81
2022/09/08 14:39:15;;;;;;;12.30;11.90;;;26.90;99.90;;;;;;5061890;28;20235;-81
2022/09/08 14:41:53;;;;;;;12.30;11.90;;;27.20;99.90;;;;;;5032711;28;20262;-81
2022/09/08 14:44:58;;;;;;;12.27;11.88;;;27.50;99.90;;;;;;5055698;28;20219;-81
2022/09/08 14:47:46;;;;;;;12.00;11.60;;;27.50;99.90;;;;;;5061028;28;20231;-80
2022/09/08 14:50:24;;;;;;;11.98;11.57;;;27.10;99.90;;;;;;5060171;28;20281;-81
2022/09/08 14:53:19;;;;;;;11.70;11.30;;;27.00;99.90;;;;;;5063051;28;20231;-80
2022/09/08 14:55:59;;;;;;;11.60;11.20;;;27.00;99.90;;;;;;5060564;28;20233;-80
2022/09/08 14:58:52;;;;;;;11.35;11.02;;;27.00;99.90;;;;;;5061198;28;20230;-80
2022/09/08 15:01:33;;;;;;;11.50;11.10;;;27.00;99.90;;;;;;5063684;28;20234;-80
2022/09/08 15:04:18;;;;;;;11.80;11.40;;;27.20;99.90;;;;;;5066539;28;20322;-81
2022/09/08 15:07:03;;;;;;;11.60;11.20;;;27.70;99.90;;;;;;5062786;28;20314;-82
2022/09/08 15:09:46;;;;;;;11.55;11.15;;;28.00;99.90;;;;;;5062231;28;20324;-80
2022/09/08 15:12:35;;;;;;;11.10;10.80;;;27.80;99.90;;;;;;5057741;28;20308;-79
2022/09/08 15:15:19;;;;;;;11.30;11.00;;;27.50;99.90;;;;;;5058053;28;20317;-79
2022/09/08 15:17:53;;;;;;;11.25;10.95;;;27.50;99.90;;;;;;5059340;28;20233;-79
2022/09/08 15:20:33;;;;;;;11.13;10.82;;;27.40;99.90;;;;;;5058932;28;20317;-79
2022/09/08 15:23:22;;;;;;;11.13;10.82;;;27.50;99.90;;;;;;5059491;28;20238;-78
2022/09/08 15:26:08;;;;;;;11.20;10.90;;;27.30;99.90;;;;;;5058891;28;20227;-78
2022/09/08 15:28:39;;;;;;;11.30;11.00;;;27.50;99.90;;;;;;5058616;28;20231;-78
2022/09/08 15:31:32;;;;;;;11.25;10.95;;;27.30;99.90;;;;;;5059061;28;20238;-78
2022/09/08 15:34:19;;;;;;;10.80;10.50;;;27.60;99.90;;;;;;5063481;28;20954;-79
2022/09/08 15:37:01;;;;;;;10.82;10.52;;;28.00;99.90;;;;;;5057616;28;20246;-78
2022/09/08 15:39:40;;;;;;;10.82;10.52;;;28.00;99.90;;;;;;5051319;28;20233;-78
2022/09/08 15:42:37;;;;;;;10.80;10.50;;;28.40;99.90;;;;;;5058108;28;20275;-79
2022/09/08 15:45:20;;;;;;;10.60;10.30;;;28.50;99.90;;;;;;5050187;28;20241;-80
2022/09/08 15:48:13;;;;;;;10.90;10.60;;;27.90;99.90;;;;;;5059962;28;20317;-80
2022/09/08 15:51:03;;;;;;;10.80;10.50;;;27.50;99.90;;;;;;5056705;28;20329;-80
2022/09/08 15:53:54;;;;;;;11.00;10.70;;;27.30;99.90;;;;;;5041692;28;20224;-78
2022/09/08 15:56:53;;;;;;;10.82;10.52;;;27.30;99.90;;;;;;5042361;28;20255;-81
2022/09/08 16:00:08;;;;;;;11.02;10.73;;;27.20;99.90;;;;;;5041337;28;20223;-80
2022/09/08 16:02:55;;;;;;;10.75;10.45;;;27.50;99.90;;;;;;5045178;28;20294;-80
2022/09/08 16:05:31;;;;;;;11.43;11.13;;;28.00;99.90;;;;;;5043938;28;20317;-80
2022/09/08 16:08:08;;;;;;;10.80;10.50;;;28.00;99.90;;;;;;5043973;28;20334;-79
2022/09/08 16:11:11;;;;;;;10.90;10.60;;;28.50;99.90;;;;;;5044642;28;20237;-81
2022/09/08 16:13:54;;;;;;;11.15;10.85;;;28.80;99.90;;;;;;5045586;28;20250;-80
2022/09/08 16:16:49;;;;;;;10.85;10.55;;;28.60;99.90;;;;;;5043779;28;20235;-80
2022/09/08 16:19:22;;;;;;;10.60;10.30;;;28.10;99.90;;;;;;5044276;28;20220;-80
2022/09/08 16:22:30;;;;;;;10.80;10.50;;;28.30;99.90;;;;;;5044438;28;20235;-81
2022/09/08 16:25:00;;;;;;;10.80;10.50;;;28.00;99.90;;;;;;5003601;28;20235;-80
2022/09/08 16:28:10;;;;;;;10.57;10.27;;;27.80;99.90;;;;;;5040318;28;20299;-80
2022/09/08 16:30:52;;;;;;;10.40;10.10;;;27.40;99.90;;;;;;5043325;28;20239;-79
2022/09/08 16:33:30;;;;;;;10.30;10.00;;;26.70;99.90;;;;;;5043452;28;20235;-79
2022/09/08 16:36:17;;;;;;;10.68;10.38;;;26.30;99.90;;;;;;5043540;28;20231;-80
2022/09/08 16:39:00;;;;;;;10.60;10.30;;;26.30;99.90;;;;;;5049948;28;20235;-79
2022/09/08 16:41:36;;;;;;;10.32;10.02;;;26.50;99.90;;;;;;5049848;28;20235;-79
2022/09/08 16:44:27;;;;;;;10.50;10.20;;;26.70;99.90;;;;;;5053617;28;20231;-79
2022/09/08 16:47:19;;;;;;;10.70;10.40;;;26.60;99.90;;;;;;5047681;28;20314;-79
2022/09/08 16:49:56;;;;;;;10.38;10.07;;;26.60;99.90;;;;;;5046419;28;20243;-79
2022/09/08 16:52:28;;;;;;;10.40;10.10;;;26.30;99.90;;;;;;5044999;28;20239;-80
2022/09/08 16:55:33;;;;;;;10.40;10.10;;;26.30;99.90;;;;;;5044534;28;20224;-79
2022/09/08 16:58:27;;;;;;;10.50;10.20;;;26.20;99.90;;;;;;5038084;28;20302;-79
2022/09/08 17:01:22;;;;;;;10.48;10.18;;;26.10;99.90;;;;;;5044151;28;20259;-79
2022/09/08 17:03:53;;;;;;;11.00;10.70;;;25.80;99.90;;;;;;5034824;28;20290;-80
2022/09/08 17:06:35;;;;;;;11.00;10.70;;;25.60;99.90;;;;;;5043761;28;20258;-80
2022/09/08 17:09:30;;;;;;;10.70;10.40;;;25.30;99.90;;;;;;5044990;28;20251;-81
2022/09/08 17:12:14;;;;;;;10.65;10.35;;;25.10;99.90;;;;;;5098999;22;20240;-85
2022/09/08 17:14:42;;;;;;;10.57;10.27;;;24.90;99.90;;;;;;5110697;28;20252;-84
2022/09/08 17:17:46;;;;;;;10.48;10.18;;;24.60;99.90;;;;;;5111132;28;20229;-84
2022/09/08 17:20:34;;;;;;;10.35;10.05;;;24.20;99.90;;;;;;5107760;28;20229;-85
2022/09/08 17:23:14;;;;;;;10.35;10.05;;;23.90;99.90;;;;;;5107975;28;20295;-84
2022/09/08 17:25:53;;;;;;;10.40;10.10;;;23.70;99.90;;;;;;5107256;28;20264;-84
2022/09/08 17:29:22;;;;;;;10.30;10.00;;;23.50;99.90;;;;;;5107335;28;20237;-84
2022/09/08 17:31:53;;;;;;;10.30;10.00;;;23.40;99.90;;;;;;5107751;28;20239;-84
2022/09/08 17:34:49;;;;;;;10.70;10.40;;;23.20;99.90;;;;;;5107756;28;20279;-85
2022/09/08 17:37:27;;;;;;;10.30;10.00;;;23.10;99.90;;;;;;5108250;28;20241;-84
2022/09/08 17:40:22;;;;;;;10.40;10.10;;;22.90;99.90;;;;;;5107723;28;20320;-84
2022/09/08 17:42:59;;;;;;;10.35;10.05;;;22.70;99.90;;;;;;5106926;28;20230;-85
2022/09/08 17:45:40;;;;;;;10.77;10.48;;;22.50;99.90;;;;;;5108366;28;20229;-85
2022/09/08 17:48:17;;;;;;;10.70;10.40;;;22.30;99.90;;;;;;5105498;28;20229;-85
2022/09/08 17:51:13;;;;;;;10.73;10.43;;;22.20;99.90;;;;;;5104856;28;20272;-85
2022/09/08 17:53:59;;;;;;;10.77;10.48;;;22.20;99.90;;;;;;5105845;28;20217;-83
2022/09/08 17:56:56;;;;;;;10.63;10.32;;;22.10;99.90;;;;;;5106556;28;20300;-84
2022/09/08 18:00:16;;;;;;;10.70;10.40;;;22.00;99.90;;;;;;5107541;28;20230;-84